ROMMA est une association bénévole à but non lucratif. Votre soutien est indispensable : ADHERER à ROMMA ou FAIRE un DON

Crempigny - (74, Haute-Savoie)

Albanais-Montagne des Princes (500 m)   Longitude: 05° 54' 5" E   Latitude: 45° 57' 0" N Station partenaire n°10
 

Détail journalier du     <<     >>

Température Precipitation Humidité Pression Vent Dir Rafale Dir. rafale Ensol. 20 cm au dessus du sol
Heure (°C) (mm) (%) (hPa) (km/h) (km/h) (min) (°C)
01:00 2.009610061N5N01.7
02:00 1.9097100603N01.7
03:00 1.809710071N6N01.7
04:00 2.20.29710075N13NO01.7
05:00 1.609710072S6S01.7
06:00 1.7098100802S01.7
07:00 1.90.698100902S02.2
08:00 2.10.298101002S02.2
09:00 2.609910111S5S203.3
10:00 2.909910112SO6SO04.4
11:00 3.309910123S8S155.6
12:00 4.909910123SO8SO4013.9
13:00 6.408710115SSO15SE6010.0
14:00 7.508010115SSO11SSO6010.6
15:00 7.808110116SO15SO6010.0
16:00 6.708210113ONO8OSO505.6
17:00 5.308610115NO11NO03.9
18:00 4.208810116NO10NO03.3
19:00 4.10.28810124NO8NO03.3
20:00 4.108710125NO10NO02.2
21:00 2.609110122ONO6ONO01.1
22:00 2.609310122ONO6ONO01.7
23:00 2.709310124ONO8NO02.8
minuit 2.409310123NNO8NNO01.1

Graphique du 16-11-2019

 

Serveur OMMA